sensor_id;sensor_type;location;lat;lon;timestamp;pressure;altitude;pressure_sealevel;temperature;humidity
57610;BME280;43435;46.186;9.024;2024-03-08T09:53:33;98518.84;;;12.45;72.79
57610;BME280;43435;46.186;9.024;2024-03-08T09:55:58;98521.25;;;12.85;76.50
57610;BME280;43435;46.186;9.024;2024-03-08T09:58:24;98516.50;;;12.87;75.08
57610;BME280;43435;46.186;9.024;2024-03-08T10:00:58;98517.59;;;12.79;75.11
57610;BME280;43435;46.186;9.024;2024-03-08T10:03:26;98515.13;;;12.78;74.89
57610;BME280;43435;46.186;9.024;2024-03-08T10:05:52;98522.97;;;12.73;74.16
57610;BME280;43435;46.186;9.024;2024-03-08T10:08:17;98528.72;;;12.76;73.86
57610;BME280;43435;46.186;9.024;2024-03-08T10:10:42;98515.22;;;12.65;73.19
57610;BME280;43435;46.186;9.024;2024-03-08T10:13:09;98519.97;;;12.63;72.33
57610;BME280;43435;46.186;9.024;2024-03-08T10:15:36;98523.53;;;12.56;71.55
57610;BME280;43435;46.186;9.024;2024-03-08T10:18:02;98529.28;;;12.53;70.81
57610;BME280;43435;46.186;9.024;2024-03-08T10:20:28;98533.44;;;12.49;70.89
57610;BME280;43435;46.186;9.024;2024-03-08T10:22:59;98527.28;;;12.49;70.71
57610;BME280;43435;46.186;9.024;2024-03-08T10:25:27;98531.34;;;12.51;70.35
57610;BME280;43435;46.186;9.024;2024-03-08T10:27:52;98536.09;;;12.49;70.23
57610;BME280;43435;46.186;9.024;2024-03-08T10:30:17;98528.91;;;12.50;70.35
57610;BME280;43435;46.186;9.024;2024-03-08T10:32:47;98527.28;;;12.49;70.30
57610;BME280;43435;46.186;9.024;2024-03-08T10:35:12;98529.94;;;12.49;69.99
57610;BME280;43435;46.186;9.024;2024-03-08T10:37:48;98533.44;;;12.49;69.90
57610;BME280;43435;46.186;9.024;2024-03-08T10:40:29;98523.38;;;12.45;69.60
57610;BME280;43435;46.186;9.024;2024-03-08T10:45:34;98530.16;;;12.47;69.30
57610;BME280;43435;46.186;9.024;2024-03-08T10:48:30;98538.59;;;12.44;69.13
57610;BME280;43435;46.186;9.024;2024-03-08T10:50:59;98526.13;;;12.31;69.27
57610;BME280;43435;46.186;9.024;2024-03-08T10:53:27;98534.78;;;12.33;69.25
57610;BME280;43435;46.186;9.024;2024-03-08T10:55:53;98526.53;;;12.35;68.78
57610;BME280;43435;46.186;9.024;2024-03-08T10:58:20;98523.63;;;12.37;68.68
57610;BME280;43435;46.186;9.024;2024-03-08T11:00:46;98525.06;;;12.39;68.65
57610;BME280;43435;46.186;9.024;2024-03-08T11:06:05;98524.00;;;12.40;68.26
57610;BME280;43435;46.186;9.024;2024-03-08T11:08:31;98518.66;;;12.40;67.84
57610;BME280;43435;46.186;9.024;2024-03-08T11:10:57;98513.72;;;12.44;67.79
57610;BME280;43435;46.186;9.024;2024-03-08T11:13:39;98508.78;;;12.41;67.18
57610;BME280;43435;46.186;9.024;2024-03-08T11:16:10;98521.97;;;12.42;67.33
57610;BME280;43435;46.186;9.024;2024-03-08T11:18:36;98515.56;;;12.43;67.44
57610;BME280;43435;46.186;9.024;2024-03-08T11:21:08;98509.19;;;12.44;67.19
57610;BME280;43435;46.186;9.024;2024-03-08T11:23:37;98511.41;;;12.47;67.29
57610;BME280;43435;46.186;9.024;2024-03-08T11:26:03;98508.31;;;12.50;66.93
57610;BME280;43435;46.186;9.024;2024-03-08T11:28:32;98502.13;;;12.56;67.33
57610;BME280;43435;46.186;9.024;2024-03-08T11:33:31;98497.16;;;12.60;66.44
57610;BME280;43435;46.186;9.024;2024-03-08T11:38:32;98488.09;;;12.61;66.63
57610;BME280;43435;46.186;9.024;2024-03-08T11:40:58;98497.31;;;12.65;66.25
57610;BME280;43435;46.186;9.024;2024-03-08T11:43:23;98486.03;;;12.63;66.11
57610;BME280;43435;46.186;9.024;2024-03-08T11:45:49;98480.44;;;12.65;66.04
57610;BME280;43435;46.186;9.024;2024-03-08T11:48:15;98477.63;;;12.60;66.31
57610;BME280;43435;46.186;9.024;2024-03-08T11:50:40;98474.97;;;12.53;66.92
57610;BME280;43435;46.186;9.024;2024-03-08T11:53:08;98475.56;;;12.55;66.38
57610;BME280;43435;46.186;9.024;2024-03-08T11:55:33;98483.34;;;12.63;66.25
57610;BME280;43435;46.186;9.024;2024-03-08T11:58:04;98480.84;;;12.68;65.84
57610;BME280;43435;46.186;9.024;2024-03-08T12:00:32;98474.28;;;12.64;65.10
57610;BME280;43435;46.186;9.024;2024-03-08T12:03:04;98468.41;;;12.74;65.08
57610;BME280;43435;46.186;9.024;2024-03-08T12:05:30;98471.72;;;12.76;64.98
57610;BME280;43435;46.186;9.024;2024-03-08T12:08:00;98467.94;;;12.84;64.81
57610;BME280;43435;46.186;9.024;2024-03-08T12:10:25;98471.63;;;12.89;64.86
57610;BME280;43435;46.186;9.024;2024-03-08T12:12:52;98473.81;;;12.92;64.32
57610;BME280;43435;46.186;9.024;2024-03-08T12:15:19;98464.56;;;12.95;63.92
57610;BME280;43435;46.186;9.024;2024-03-08T12:17:47;98462.25;;;12.98;64.02
57610;BME280;43435;46.186;9.024;2024-03-08T12:20:24;98458.38;;;12.94;64.53
57610;BME280;43435;46.186;9.024;2024-03-08T12:22:56;98458.53;;;12.99;64.78
57610;BME280;43435;46.186;9.024;2024-03-08T12:25:30;98457.66;;;13.05;65.16
57610;BME280;43435;46.186;9.024;2024-03-08T12:27:56;98451.25;;;13.06;64.91
57610;BME280;43435;46.186;9.024;2024-03-08T12:30:24;98452.75;;;13.02;65.60
57610;BME280;43435;46.186;9.024;2024-03-08T12:32:59;98445.09;;;13.06;65.62
57610;BME280;43435;46.186;9.024;2024-03-08T12:35:26;98449.72;;;13.17;65.07
57610;BME280;43435;46.186;9.024;2024-03-08T12:37:54;98444.34;;;13.17;64.51
57610;BME280;43435;46.186;9.024;2024-03-08T12:40:26;98442.97;;;13.15;64.60
57610;BME280;43435;46.186;9.024;2024-03-08T12:42:53;98444.72;;;13.21;64.49
57610;BME280;43435;46.186;9.024;2024-03-08T12:45:18;98434.94;;;13.15;64.29
57610;BME280;43435;46.186;9.024;2024-03-08T12:47:44;98440.50;;;13.13;64.64
57610;BME280;43435;46.186;9.024;2024-03-08T12:50:10;98436.63;;;13.09;64.82
57610;BME280;43435;46.186;9.024;2024-03-08T12:52:35;98438.19;;;13.17;64.77
57610;BME280;43435;46.186;9.024;2024-03-08T12:55:02;98436.56;;;13.16;64.31
57610;BME280;43435;46.186;9.024;2024-03-08T12:57:28;98429.56;;;13.15;64.31
57610;BME280;43435;46.186;9.024;2024-03-08T12:59:53;98434.94;;;13.15;64.64
57610;BME280;43435;46.186;9.024;2024-03-08T13:02:19;98426.53;;;13.11;64.30
57610;BME280;43435;46.186;9.024;2024-03-08T13:04:45;98429.94;;;13.18;63.83
57610;BME280;43435;46.186;9.024;2024-03-08T13:07:11;98424.06;;;13.10;64.09
57610;BME280;43435;46.186;9.024;2024-03-08T13:09:36;98425.25;;;13.14;63.73
57610;BME280;43435;46.186;9.024;2024-03-08T13:12:02;98423.19;;;13.16;62.97
57610;BME280;43435;46.186;9.024;2024-03-08T13:14:28;98416.47;;;13.06;63.32
57610;BME280;43435;46.186;9.024;2024-03-08T13:16:57;98418.13;;;13.08;63.22
57610;BME280;43435;46.186;9.024;2024-03-08T13:19:24;98424.66;;;13.12;63.21
57610;BME280;43435;46.186;9.024;2024-03-08T13:21:49;98420.78;;;13.08;63.66
57610;BME280;43435;46.186;9.024;2024-03-08T13:24:14;98419.44;;;13.17;63.92
57610;BME280;43435;46.186;9.024;2024-03-08T13:26:41;98415.22;;;13.09;63.40
57610;BME280;43435;46.186;9.024;2024-03-08T13:29:08;98410.34;;;12.99;63.19
57610;BME280;43435;46.186;9.024;2024-03-08T13:31:33;98415.66;;;13.06;63.75
57610;BME280;43435;46.186;9.024;2024-03-08T13:34:01;98403.81;;;12.95;63.55
57610;BME280;43435;46.186;9.024;2024-03-08T13:36:26;98404.19;;;12.99;63.16
57610;BME280;43435;46.186;9.024;2024-03-08T13:39:00;98399.75;;;12.93;63.10
57610;BME280;43435;46.186;9.024;2024-03-08T13:41:25;98400.16;;;12.90;62.65
57610;BME280;43435;46.186;9.024;2024-03-08T13:43:51;98397.69;;;12.88;62.75
57610;BME280;43435;46.186;9.024;2024-03-08T13:46:18;98381.44;;;12.90;62.25
57610;BME280;43435;46.186;9.024;2024-03-08T13:48:43;98392.44;;;12.81;62.82
57610;BME280;43435;46.186;9.024;2024-03-08T13:51:09;98381.22;;;12.91;62.57
57610;BME280;43435;46.186;9.024;2024-03-08T13:53:40;98385.38;;;12.87;62.68
57610;BME280;43435;46.186;9.024;2024-03-08T13:56:06;98393.78;;;12.91;62.77
57610;BME280;43435;46.186;9.024;2024-03-08T13:58:31;98396.94;;;12.81;63.40
57610;BME280;43435;46.186;9.024;2024-03-08T14:00:57;98386.25;;;12.81;63.54
57610;BME280;43435;46.186;9.024;2024-03-08T14:03:22;98393.69;;;12.79;64.00
57610;BME280;43435;46.186;9.024;2024-03-08T14:05:49;98389.22;;;12.73;64.30
57610;BME280;43435;46.186;9.024;2024-03-08T14:08:14;98406.03;;;12.80;64.62
57610;BME280;43435;46.186;9.024;2024-03-08T14:10:41;98397.84;;;12.75;65.20
57610;BME280;43435;46.186;9.024;2024-03-08T14:13:07;98402.81;;;12.71;65.54
57610;BME280;43435;46.186;9.024;2024-03-08T14:15:34;98405.09;;;12.68;65.99
57610;BME280;43435;46.186;9.024;2024-03-08T14:18:00;98404.50;;;12.66;65.90
57610;BME280;43435;46.186;9.024;2024-03-08T14:20:26;98397.56;;;12.58;66.28
57610;BME280;43435;46.186;9.024;2024-03-08T14:22:53;98393.97;;;12.46;66.78
57610;BME280;43435;46.186;9.024;2024-03-08T14:25:18;98395.84;;;12.45;67.01
57610;BME280;43435;46.186;9.024;2024-03-08T14:27:44;98388.09;;;12.37;67.18
57610;BME280;43435;46.186;9.024;2024-03-08T14:30:11;98392.88;;;12.28;67.61
57610;BME280;43435;46.186;9.024;2024-03-08T14:32:37;98387.56;;;12.22;68.13
57610;BME280;43435;46.186;9.024;2024-03-08T14:35:05;98383.69;;;12.18;68.43
57610;BME280;43435;46.186;9.024;2024-03-08T14:37:31;98375.25;;;12.21;68.37
57610;BME280;43435;46.186;9.024;2024-03-08T14:39:56;98374.47;;;12.14;69.16
57610;BME280;43435;46.186;9.024;2024-03-08T14:42:22;98374.81;;;12.24;68.53
57610;BME280;43435;46.186;9.024;2024-03-08T14:44:48;98375.94;;;12.09;69.69
57610;BME280;43435;46.186;9.024;2024-03-08T14:47:17;98373.31;;;12.03;70.28
57610;BME280;43435;46.186;9.024;2024-03-08T14:49:42;98377.69;;;11.97;70.67
57610;BME280;43435;46.186;9.024;2024-03-08T14:52:07;98370.44;;;12.04;70.07
57610;BME280;43435;46.186;9.024;2024-03-08T14:54:52;98365.91;;;12.05;70.03
57610;BME280;43435;46.186;9.024;2024-03-08T14:57:17;98374.31;;;12.08;69.44
57610;BME280;43435;46.186;9.024;2024-03-08T14:59:43;98372.03;;;12.12;69.10
57610;BME280;43435;46.186;9.024;2024-03-08T15:02:08;98369.97;;;12.07;68.80
57610;BME280;43435;46.186;9.024;2024-03-08T15:04:35;98366.72;;;12.05;69.01
57610;BME280;43435;46.186;9.024;2024-03-08T15:07:01;98355.66;;;12.02;68.73
57610;BME280;43435;46.186;9.024;2024-03-08T15:09:27;98349.84;;;12.12;67.85
57610;BME280;43435;46.186;9.024;2024-03-08T15:11:52;98360.28;;;12.13;67.64
57610;BME280;43435;46.186;9.024;2024-03-08T15:14:19;98353.09;;;12.14;67.13
57610;BME280;43435;46.186;9.024;2024-03-08T15:16:48;98354.53;;;12.16;66.85
57610;BME280;43435;46.186;9.024;2024-03-08T15:19:14;98347.53;;;12.15;66.63
57610;BME280;43435;46.186;9.024;2024-03-08T15:21:40;98354.13;;;12.13;66.95
57610;BME280;43435;46.186;9.024;2024-03-08T15:24:08;98349.84;;;12.12;67.18
57610;BME280;43435;46.186;9.024;2024-03-08T15:26:40;98341.34;;;12.15;66.70
57610;BME280;43435;46.186;9.024;2024-03-08T15:29:06;98340.59;;;12.07;67.03
57610;BME280;43435;46.186;9.024;2024-03-08T15:31:31;98331.63;;;11.95;67.61
57610;BME280;43435;46.186;9.024;2024-03-08T15:33:57;98335.13;;;11.96;66.71
57610;BME280;43435;46.186;9.024;2024-03-08T15:36:30;98329.97;;;12.01;67.06
57610;BME280;43435;46.186;9.024;2024-03-08T15:38:58;98335.34;;;11.94;67.33
57610;BME280;43435;46.186;9.024;2024-03-08T15:41:24;98331.91;;;11.87;67.47
57610;BME280;43435;46.186;9.024;2024-03-08T15:43:52;98338.47;;;11.91;66.55
57610;BME280;43435;46.186;9.024;2024-03-08T15:46:18;98335.16;;;11.89;67.02
57610;BME280;43435;46.186;9.024;2024-03-08T15:48:49;98322.28;;;11.79;67.39
57610;BME280;43435;46.186;9.024;2024-03-08T15:51:16;98330.69;;;11.83;67.58
57610;BME280;43435;46.186;9.024;2024-03-08T15:53:44;98328.84;;;11.77;67.65
57610;BME280;43435;46.186;9.024;2024-03-08T15:56:19;98329.47;;;11.79;67.96
57610;BME280;43435;46.186;9.024;2024-03-08T15:58:48;98334.03;;;11.72;68.38
57610;BME280;43435;46.186;9.024;2024-03-08T16:01:14;98336.06;;;11.76;68.32
57610;BME280;43435;46.186;9.024;2024-03-08T16:03:42;98344.09;;;11.70;68.08
57610;BME280;43435;46.186;9.024;2024-03-08T16:06:10;98335.13;;;11.64;68.74
57610;BME280;43435;46.186;9.024;2024-03-08T16:08:35;98342.69;;;11.67;69.22
57610;BME280;43435;46.186;9.024;2024-03-08T16:11:04;98341.44;;;11.70;69.32
57610;BME280;43435;46.186;9.024;2024-03-08T16:13:32;98342.31;;;11.64;69.70
57610;BME280;43435;46.186;9.024;2024-03-08T16:15:58;98345.81;;;11.57;70.05
57610;BME280;43435;46.186;9.024;2024-03-08T16:18:23;98343.22;;;11.44;71.26
57610;BME280;43435;46.186;9.024;2024-03-08T16:20:54;98342.41;;;11.37;72.10
57610;BME280;43435;46.186;9.024;2024-03-08T16:23:20;98341.22;;;11.26;73.08
57610;BME280;43435;46.186;9.024;2024-03-08T16:25:46;98349.44;;;11.31;73.41
57610;BME280;43435;46.186;9.024;2024-03-08T16:28:12;98340.38;;;11.39;73.14
57610;BME280;43435;46.186;9.024;2024-03-08T16:30:43;98342.84;;;11.34;73.41
57610;BME280;43435;46.186;9.024;2024-03-08T16:33:14;98337.91;;;11.37;73.10
57610;BME280;43435;46.186;9.024;2024-03-08T16:35:39;98335.88;;;11.33;75.28
57610;BME280;43435;46.186;9.024;2024-03-08T16:38:09;98343.72;;;11.21;77.86
57610;BME280;43435;46.186;9.024;2024-03-08T16:40:38;98342.00;;;11.40;77.44
57610;BME280;43435;46.186;9.024;2024-03-08T16:43:03;98339.09;;;11.48;76.18
57610;BME280;43435;46.186;9.024;2024-03-08T16:45:29;98334.84;;;11.34;75.38
57610;BME280;43435;46.186;9.024;2024-03-08T16:47:54;98343.66;;;10.83;76.06
57610;BME280;43435;46.186;9.024;2024-03-08T16:50:20;98322.09;;;10.91;75.39
57610;BME280;43435;46.186;9.024;2024-03-08T16:52:45;98340.44;;;11.19;74.76
57610;BME280;43435;46.186;9.024;2024-03-08T16:55:12;98341.88;;;11.22;74.77
57610;BME280;43435;46.186;9.024;2024-03-08T16:57:41;98346.56;;;11.26;74.53
57610;BME280;43435;46.186;9.024;2024-03-08T17:02:39;98343.28;;;11.31;74.57
57610;BME280;43435;46.186;9.024;2024-03-08T17:05:04;98340.81;;;11.29;74.47
57610;BME280;43435;46.186;9.024;2024-03-08T17:07:31;98326.50;;;11.24;74.39
57610;BME280;43435;46.186;9.024;2024-03-08T17:09:58;98341.03;;;11.28;74.49
57610;BME280;43435;46.186;9.024;2024-03-08T17:12:25;98330.78;;;11.25;74.29
57610;BME280;43435;46.186;9.024;2024-03-08T17:14:50;98332.84;;;11.23;74.13
57610;BME280;43435;46.186;9.024;2024-03-08T17:17:16;98331.03;;;11.17;74.79
57610;BME280;43435;46.186;9.024;2024-03-08T17:19:41;98331.41;;;11.27;74.05
57610;BME280;43435;46.186;9.024;2024-03-08T17:22:07;98332.41;;;11.26;73.55
57610;BME280;43435;46.186;9.024;2024-03-08T17:24:32;98340.00;;;11.29;73.78
57610;BME280;43435;46.186;9.024;2024-03-08T17:26:58;98325.47;;;11.18;74.08
57610;BME280;43435;46.186;9.024;2024-03-08T17:29:23;98340.22;;;11.27;74.18
57610;BME280;43435;46.186;9.024;2024-03-08T17:31:48;98344.16;;;11.18;74.24
57610;BME280;43435;46.186;9.024;2024-03-08T17:34:15;98338.78;;;11.25;74.35
57610;BME280;43435;46.186;9.024;2024-03-08T17:36:44;98354.81;;;11.25;74.20
57610;BME280;43435;46.186;9.024;2024-03-08T17:39:13;98347.44;;;11.20;74.27
57610;BME280;43435;46.186;9.024;2024-03-08T17:41:46;98348.25;;;11.21;74.01
57610;BME280;43435;46.186;9.024;2024-03-08T17:44:16;98358.50;;;11.30;73.59
57610;BME280;43435;46.186;9.024;2024-03-08T17:46:42;98364.25;;;11.27;73.00
57610;BME280;43435;46.186;9.024;2024-03-08T17:49:08;98367.53;;;11.23;72.67
57610;BME280;43435;46.186;9.024;2024-03-08T17:51:35;98359.53;;;11.23;72.51
57610;BME280;43435;46.186;9.024;2024-03-08T17:54:00;98365.47;;;11.25;72.49
57610;BME280;43435;46.186;9.024;2024-03-08T17:56:27;98366.69;;;11.29;72.35
57610;BME280;43435;46.186;9.024;2024-03-08T17:58:53;98360.56;;;11.22;72.54
57610;BME280;43435;46.186;9.024;2024-03-08T18:01:18;98356.84;;;11.23;72.26
57610;BME280;43435;46.186;9.024;2024-03-08T18:03:44;98355.63;;;11.25;72.52
57610;BME280;43435;46.186;9.024;2024-03-08T18:06:10;98361.59;;;11.27;72.06
57610;BME280;43435;46.186;9.024;2024-03-08T18:08:35;98353.38;;;11.16;72.29
57610;BME280;43435;46.186;9.024;2024-03-08T18:11:02;98366.72;;;11.16;72.39
57610;BME280;43435;46.186;9.024;2024-03-08T18:13:28;98362.84;;;11.11;72.43
57610;BME280;43435;46.186;9.024;2024-03-08T18:15:55;98367.59;;;11.09;72.63
57610;BME280;43435;46.186;9.024;2024-03-08T18:18:21;98370.69;;;11.00;73.48
57610;BME280;43435;46.186;9.024;2024-03-08T18:20:47;98369.06;;;10.99;73.92
57610;BME280;43435;46.186;9.024;2024-03-08T18:23:17;98370.69;;;11.00;73.88
57610;BME280;43435;46.186;9.024;2024-03-08T18:25:43;98378.91;;;11.05;74.72
57610;BME280;43435;46.186;9.024;2024-03-08T18:28:09;98376.44;;;11.03;74.38
57610;BME280;43435;46.186;9.024;2024-03-08T18:30:35;98388.13;;;11.02;74.56
57610;BME280;43435;46.186;9.024;2024-03-08T18:33:04;98384.84;;;11.07;73.92
57610;BME280;43435;46.186;9.024;2024-03-08T18:35:30;98387.91;;;11.10;73.68
57610;BME280;43435;46.186;9.024;2024-03-08T18:37:56;98383.19;;;11.12;73.55
57610;BME280;43435;46.186;9.024;2024-03-08T18:40:22;98382.38;;;11.12;73.64
57610;BME280;43435;46.186;9.024;2024-03-08T18:42:49;98392.03;;;11.06;74.04
57610;BME280;43435;46.186;9.024;2024-03-08T18:45:15;98390.97;;;11.07;73.98
57610;BME280;43435;46.186;9.024;2024-03-08T18:47:49;98395.31;;;11.08;74.34
57610;BME280;43435;46.186;9.024;2024-03-08T18:50:16;98401.88;;;11.12;74.26
57610;BME280;43435;46.186;9.024;2024-03-08T18:52:43;98410.28;;;11.09;74.45
57610;BME280;43435;46.186;9.024;2024-03-08T18:55:10;98396.31;;;11.07;74.11
57610;BME280;43435;46.186;9.024;2024-03-08T18:57:44;98405.38;;;11.06;74.35
57610;BME280;43435;46.186;9.024;2024-03-08T19:00:14;98409.06;;;11.05;74.12
57610;BME280;43435;46.186;9.024;2024-03-08T19:02:53;98409.25;;;11.04;74.64
57610;BME280;43435;46.186;9.024;2024-03-08T19:05:20;98403.34;;;11.02;74.94
57610;BME280;43435;46.186;9.024;2024-03-08T19:07:47;98407.44;;;10.98;74.93
57610;BME280;43435;46.186;9.024;2024-03-08T19:10:14;98402.13;;;10.98;75.03
57610;BME280;43435;46.186;9.024;2024-03-08T19:12:44;98399.63;;;10.96;75.23
57610;BME280;43435;46.186;9.024;2024-03-08T19:15:09;98415.22;;;10.99;75.13
57610;BME280;43435;46.186;9.024;2024-03-08T19:17:36;98413.78;;;11.03;74.50
57610;BME280;43435;46.186;9.024;2024-03-08T19:20:05;98409.50;;;10.96;75.05
57610;BME280;43435;46.186;9.024;2024-03-08T19:22:31;98416.06;;;10.93;75.36
57610;BME280;43435;46.186;9.024;2024-03-08T19:24:57;98413.19;;;10.88;75.49
57610;BME280;43435;46.186;9.024;2024-03-08T19:27:22;98388.19;;;10.76;75.61
57610;BME280;43435;46.186;9.024;2024-03-08T19:29:48;98406.63;;;10.91;75.70
57610;BME280;43435;46.186;9.024;2024-03-08T19:32:13;98408.28;;;10.85;76.37
57610;BME280;43435;46.186;9.024;2024-03-08T19:34:39;98397.81;;;10.77;76.44
57610;BME280;43435;46.186;9.024;2024-03-08T19:37:04;98403.56;;;10.87;76.13
57610;BME280;43435;46.186;9.024;2024-03-08T19:39:33;98402.53;;;10.88;75.73
57610;BME280;43435;46.186;9.024;2024-03-08T19:42:00;98398.81;;;10.89;75.41
57610;BME280;43435;46.186;9.024;2024-03-08T19:44:25;98394.75;;;10.86;75.54
57610;BME280;43435;46.186;9.024;2024-03-08T19:46:51;98393.09;;;10.85;75.20
57610;BME280;43435;46.186;9.024;2024-03-08T19:49:16;98401.31;;;10.84;75.04
57610;BME280;43435;46.186;9.024;2024-03-08T19:51:42;98393.91;;;10.86;75.25
57610;BME280;43435;46.186;9.024;2024-03-08T19:54:08;98396.16;;;10.82;75.29
57610;BME280;43435;46.186;9.024;2024-03-08T19:56:33;98396.16;;;10.82;75.42
57610;BME280;43435;46.186;9.024;2024-03-08T19:59:03;98393.31;;;10.84;75.43
57610;BME280;43435;46.186;9.024;2024-03-08T20:01:28;98389.41;;;10.86;74.92
57610;BME280;43435;46.186;9.024;2024-03-08T20:03:54;98392.69;;;10.82;74.99
57610;BME280;43435;46.186;9.024;2024-03-08T20:06:20;98383.88;;;10.81;75.04
57610;BME280;43435;46.186;9.024;2024-03-08T20:08:46;98391.84;;;10.88;74.67
57610;BME280;43435;46.186;9.024;2024-03-08T20:11:12;98380.97;;;10.96;74.34
57610;BME280;43435;46.186;9.024;2024-03-08T20:13:38;98381.41;;;10.80;74.67
57610;BME280;43435;46.186;9.024;2024-03-08T20:16:04;98386.53;;;10.75;74.98
57610;BME280;43435;46.186;9.024;2024-03-08T20:18:29;98382.22;;;10.74;74.95
57610;BME280;43435;46.186;9.024;2024-03-08T20:20:57;98377.72;;;10.74;75.08
57610;BME280;43435;46.186;9.024;2024-03-08T20:23:23;98376.50;;;10.77;74.69
57610;BME280;43435;46.186;9.024;2024-03-08T20:25:49;98371.78;;;10.72;74.78
57610;BME280;43435;46.186;9.024;2024-03-08T20:28:15;98366.06;;;10.69;75.29
57610;BME280;43435;46.186;9.024;2024-03-08T20:30:40;98371.38;;;10.69;75.49
57610;BME280;43435;46.186;9.024;2024-03-08T20:33:07;98354.97;;;10.58;76.12
57610;BME280;43435;46.186;9.024;2024-03-08T20:35:34;98356.19;;;10.62;75.80
57610;BME280;43435;46.186;9.024;2024-03-08T20:38:03;98351.28;;;10.66;75.85
57610;BME280;43435;46.186;9.024;2024-03-08T20:40:33;98337.53;;;10.69;75.57
57610;BME280;43435;46.186;9.024;2024-03-08T20:43:05;98352.91;;;10.74;76.27
57610;BME280;43435;46.186;9.024;2024-03-08T20:45:33;98344.91;;;10.74;76.56
57610;BME280;43435;46.186;9.024;2024-03-08T20:47:59;98343.69;;;10.70;76.46
